createdAt,value
2023-03-14T00:02:26.018Z,5.20
2023-03-14T00:04:55.990Z,3.90
2023-03-14T00:07:22.286Z,6.22
2023-03-14T00:09:48.769Z,5.63
2023-03-14T00:12:16.232Z,4.85
2023-03-14T00:14:42.570Z,4.65
2023-03-14T00:17:09.207Z,6.78
2023-03-14T00:19:35.524Z,8.02
2023-03-14T00:22:01.823Z,8.68
2023-03-14T00:24:28.133Z,5.43
2023-03-14T00:26:54.423Z,2.63
2023-03-14T00:29:20.732Z,4.85
2023-03-14T00:31:47.037Z,6.53
2023-03-14T00:34:13.336Z,8.93
2023-03-14T00:36:39.752Z,4.95
2023-03-14T00:39:06.065Z,5.35
2023-03-14T00:41:32.426Z,5.00
2023-03-14T00:43:58.727Z,7.50
2023-03-14T00:46:25.056Z,11.07
2023-03-14T00:48:51.375Z,7.13
2023-03-14T00:51:17.823Z,6.63
2023-03-14T00:53:44.349Z,7.63
2023-03-14T00:56:13.022Z,7.13
2023-03-14T00:58:40.071Z,4.15
2023-03-14T01:01:09.592Z,6.60
2023-03-14T01:03:36.001Z,6.75
2023-03-14T01:06:17.829Z,8.50
2023-03-14T01:08:44.658Z,8.60
2023-03-14T01:11:14.063Z,6.82
2023-03-14T01:13:41.128Z,6.22
2023-03-14T01:16:10.038Z,5.57
2023-03-14T01:18:37.414Z,3.20
2023-03-14T01:21:05.125Z,5.53
2023-03-14T01:23:31.521Z,5.57
2023-03-14T01:25:57.818Z,5.50
2023-03-14T01:28:24.133Z,7.32
2023-03-14T01:30:50.429Z,4.85
2023-03-14T01:33:16.743Z,5.68
2023-03-14T01:35:43.088Z,6.80
2023-03-14T01:38:09.406Z,6.07
2023-03-14T01:40:42.923Z,5.18
2023-03-14T01:43:18.538Z,7.38
2023-03-14T01:46:06.281Z,9.13
2023-03-14T01:48:51.256Z,6.40
2023-03-14T01:51:25.045Z,8.20
2023-03-14T01:53:54.253Z,6.47
2023-03-14T01:56:20.926Z,6.68
2023-03-14T01:58:51.639Z,4.03
2023-03-14T02:01:21.013Z,9.35
2023-03-14T02:03:53.082Z,4.15
2023-03-14T02:06:24.054Z,10.48
2023-03-14T02:08:51.495Z,6.55
2023-03-14T02:11:19.282Z,9.02
2023-03-14T02:13:45.973Z,9.65
2023-03-14T02:16:12.343Z,5.05
2023-03-14T02:18:39.648Z,5.05
2023-03-14T02:21:17.729Z,6.85
2023-03-14T02:24:13.802Z,8.85
2023-03-14T02:27:04.333Z,7.78
2023-03-14T02:29:34.412Z,5.78
2023-03-14T02:32:01.066Z,8.57
2023-03-14T02:34:27.554Z,7.97
2023-03-14T02:36:54.080Z,10.27
2023-03-14T02:39:36.390Z,6.43
2023-03-14T02:42:02.706Z,5.70
2023-03-14T02:44:29.125Z,4.75
2023-03-14T02:46:55.527Z,6.72
2023-03-14T02:49:22.383Z,2.83
2023-03-14T02:51:48.945Z,2.22
2023-03-14T02:54:16.760Z,3.97
2023-03-14T02:56:43.233Z,3.97
2023-03-14T02:59:09.643Z,5.70
2023-03-14T03:01:36.094Z,4.50
2023-03-14T03:04:02.550Z,5.18
2023-03-14T03:06:28.904Z,2.70
2023-03-14T03:08:55.355Z,3.80
2023-03-14T03:11:21.647Z,5.95
2023-03-14T03:13:47.986Z,4.22
2023-03-14T03:16:14.383Z,4.00
2023-03-14T03:18:40.874Z,4.80
2023-03-14T03:21:07.603Z,8.43
2023-03-14T03:23:33.930Z,5.45
2023-03-14T03:26:00.348Z,4.57
2023-03-14T03:28:26.796Z,7.78
2023-03-14T03:30:53.152Z,3.95
2023-03-14T03:33:19.506Z,5.07
2023-03-14T03:35:50.877Z,8.38
2023-03-14T03:38:17.270Z,5.20
2023-03-14T03:40:44.327Z,8.60
2023-03-14T03:43:10.645Z,5.53
2023-03-14T03:45:36.933Z,5.80
2023-03-14T03:48:03.351Z,11.18
2023-03-14T03:50:29.671Z,3.35
2023-03-14T03:52:55.983Z,4.32
2023-03-14T03:55:22.313Z,7.00
2023-03-14T03:57:48.612Z,3.20
2023-03-14T04:00:15.079Z,5.15
2023-03-14T04:02:41.494Z,2.58
2023-03-14T04:05:08.411Z,3.65
2023-03-14T04:07:35.083Z,6.15
2023-03-14T04:10:01.441Z,6.75
2023-03-14T04:12:27.739Z,3.30
2023-03-14T04:14:54.099Z,6.28
2023-03-14T04:17:21.698Z,6.55
2023-03-14T04:19:48.812Z,5.75
2023-03-14T04:22:15.104Z,7.20
2023-03-14T04:24:41.390Z,6.68
2023-03-14T04:27:07.694Z,9.30
2023-03-14T04:29:33.981Z,4.47
2023-03-14T04:32:00.278Z,5.75
2023-03-14T04:34:26.586Z,8.65
2023-03-14T04:36:52.920Z,7.78
2023-03-14T04:39:19.348Z,13.43
2023-03-14T04:41:45.976Z,10.65
2023-03-14T04:44:12.292Z,13.15
2023-03-14T04:46:38.721Z,10.25
2023-03-14T04:49:05.036Z,12.57
2023-03-14T04:51:31.371Z,10.32
2023-03-14T04:53:57.684Z,8.25
2023-03-14T04:56:24.051Z,9.55
2023-03-14T04:58:50.388Z,10.05
2023-03-14T05:01:16.686Z,11.85
2023-03-14T05:03:43.043Z,10.27
2023-03-14T05:06:09.613Z,12.15
2023-03-14T05:08:35.901Z,7.25
2023-03-14T05:11:02.214Z,6.40
2023-03-14T05:13:28.508Z,9.02
2023-03-14T05:15:54.852Z,9.80
2023-03-14T05:18:21.203Z,13.18
2023-03-14T05:20:47.523Z,18.02
2023-03-14T05:23:13.838Z,8.27
2023-03-14T05:25:40.149Z,9.35
2023-03-14T05:28:06.460Z,8.05
2023-03-14T05:30:32.808Z,8.27
2023-03-14T05:32:59.147Z,6.07
2023-03-14T05:35:25.555Z,9.93
2023-03-14T05:37:51.900Z,9.15
2023-03-14T05:40:18.349Z,14.90
2023-03-14T05:42:44.680Z,12.65
2023-03-14T05:45:11.476Z,10.65
2023-03-14T05:47:37.766Z,13.23
2023-03-14T05:50:04.407Z,7.57
2023-03-14T05:52:30.706Z,10.90
2023-03-14T05:54:57.031Z,7.07
2023-03-14T05:57:23.391Z,6.60
2023-03-14T05:59:49.691Z,10.35
2023-03-14T06:02:16.074Z,6.18
2023-03-14T06:04:42.403Z,6.20
2023-03-14T06:07:08.715Z,6.47
2023-03-14T06:09:35.042Z,6.55
2023-03-14T06:12:01.452Z,6.45
2023-03-14T06:14:27.871Z,6.00
2023-03-14T06:16:54.287Z,8.10
2023-03-14T06:19:20.656Z,5.32
2023-03-14T06:21:47.479Z,4.47
2023-03-14T06:24:13.801Z,8.63
2023-03-14T06:26:40.167Z,7.57
2023-03-14T06:29:06.510Z,4.72
2023-03-14T06:31:33.544Z,2.22
2023-03-14T06:34:00.083Z,4.10
2023-03-14T06:36:26.393Z,4.25
2023-03-14T06:38:52.726Z,4.25
2023-03-14T06:41:19.255Z,4.13
2023-03-14T06:43:45.582Z,2.67
2023-03-14T06:46:11.962Z,3.80
2023-03-14T06:48:38.328Z,5.57
2023-03-14T06:51:04.787Z,2.30
2023-03-14T06:53:31.111Z,5.32
2023-03-14T06:55:57.434Z,2.28
2023-03-14T06:58:23.734Z,1.77
2023-03-14T07:00:50.039Z,2.25
2023-03-14T07:03:16.380Z,3.38
2023-03-14T07:05:42.700Z,5.18
2023-03-14T07:08:09.463Z,7.80
2023-03-14T07:10:36.233Z,2.78
2023-03-14T07:13:02.556Z,5.05
2023-03-14T07:15:28.917Z,5.68
2023-03-14T07:17:55.278Z,2.75
2023-03-14T07:20:21.623Z,2.80
2023-03-14T07:22:51.321Z,5.15
2023-03-14T07:25:18.366Z,4.75
2023-03-14T07:27:45.930Z,4.50
2023-03-14T07:30:13.472Z,5.07
2023-03-14T07:32:39.812Z,3.38
2023-03-14T07:35:07.133Z,3.33
2023-03-14T07:37:33.454Z,4.47
2023-03-14T07:39:59.765Z,4.35
2023-03-14T07:42:26.200Z,3.58
2023-03-14T07:44:52.524Z,3.60
2023-03-14T07:47:18.876Z,3.60
2023-03-14T07:49:45.181Z,4.80
2023-03-14T07:52:11.479Z,2.83
2023-03-14T07:54:37.908Z,2.72
2023-03-14T07:57:04.242Z,5.25
2023-03-14T07:59:30.548Z,2.38
2023-03-14T08:01:56.854Z,3.75
2023-03-14T08:04:23.147Z,5.47
2023-03-14T08:06:49.464Z,4.80
2023-03-14T08:09:15.818Z,6.03
2023-03-14T08:11:42.141Z,6.13
2023-03-14T08:14:08.448Z,4.68
2023-03-14T08:16:34.847Z,4.63
2023-03-14T08:19:01.288Z,7.95
2023-03-14T08:21:27.628Z,8.77
2023-03-14T08:23:54.002Z,5.13
2023-03-14T08:26:21.390Z,8.90
2023-03-14T08:28:47.704Z,12.07
2023-03-14T08:31:14.237Z,6.85
2023-03-14T08:33:40.696Z,6.78
2023-03-14T08:36:07.529Z,5.80
2023-03-14T08:38:33.863Z,5.88
2023-03-14T08:41:01.555Z,6.07
2023-03-14T08:43:29.421Z,6.47
2023-03-14T08:45:59.336Z,3.83
2023-03-14T08:48:25.754Z,4.57
2023-03-14T08:50:52.065Z,3.17
2023-03-14T08:53:18.382Z,5.90
2023-03-14T08:55:44.710Z,5.50
2023-03-14T08:58:11.034Z,5.95
2023-03-14T09:00:37.362Z,6.00
2023-03-14T09:03:03.818Z,4.38
2023-03-14T09:05:33.882Z,7.07
2023-03-14T09:08:00.211Z,4.43
2023-03-14T09:10:26.542Z,4.88
2023-03-14T09:12:52.841Z,6.53
2023-03-14T09:15:19.216Z,7.07
2023-03-14T09:17:45.568Z,6.28
2023-03-14T09:20:12.087Z,3.92
2023-03-14T09:22:38.420Z,5.03
2023-03-14T09:25:05.498Z,5.03
2023-03-14T09:27:31.802Z,3.53
2023-03-14T09:29:58.161Z,3.80
2023-03-14T09:32:24.516Z,4.60
2023-03-14T09:34:50.870Z,4.38
2023-03-14T09:37:17.186Z,3.97
2023-03-14T09:39:43.773Z,4.68
2023-03-14T09:42:15.481Z,4.60
2023-03-14T09:44:59.945Z,3.15
2023-03-14T09:47:27.476Z,3.75
2023-03-14T09:49:53.854Z,6.75
2023-03-14T09:52:30.245Z,5.22
2023-03-14T09:55:03.224Z,6.63
2023-03-14T09:57:29.942Z,4.35
2023-03-14T10:00:01.773Z,7.32
2023-03-14T10:02:35.738Z,3.05
2023-03-14T10:05:06.918Z,3.33
2023-03-14T10:07:34.188Z,3.70
2023-03-14T10:10:01.310Z,3.42
2023-03-14T10:12:37.984Z,3.83
2023-03-14T10:15:12.255Z,3.92
2023-03-14T10:17:49.990Z,3.08
2023-03-14T10:20:29.227Z,2.85
2023-03-14T10:22:56.047Z,2.53
2023-03-14T10:25:31.265Z,3.05
2023-03-14T10:27:58.057Z,2.67
2023-03-14T10:30:33.695Z,2.70
2023-03-14T10:33:09.432Z,3.45
2023-03-14T10:35:36.200Z,3.42
2023-03-14T10:38:05.036Z,0.80
2023-03-14T10:40:34.004Z,1.55
2023-03-14T10:43:04.279Z,1.92
2023-03-14T10:45:40.591Z,1.35
2023-03-14T10:48:19.651Z,2.67
2023-03-14T10:51:02.793Z,0.80
2023-03-14T10:53:34.443Z,3.25
2023-03-14T10:56:03.968Z,1.20
2023-03-14T10:58:33.848Z,2.50
2023-03-14T11:01:29.888Z,2.00
2023-03-14T11:04:15.052Z,1.13
2023-03-14T11:06:56.872Z,1.15
2023-03-14T11:09:33.145Z,0.40
2023-03-14T11:12:17.438Z,1.98
2023-03-14T11:14:52.144Z,1.90
2023-03-14T11:17:26.565Z,2.47
2023-03-14T11:20:23.557Z,4.03
2023-03-14T11:23:00.493Z,4.53
2023-03-14T11:25:44.107Z,1.25
2023-03-14T11:28:19.551Z,1.92
2023-03-14T11:31:00.189Z,3.80
2023-03-14T11:33:36.543Z,2.17
2023-03-14T11:36:12.787Z,3.30
2023-03-14T11:38:46.958Z,3.35
2023-03-14T11:41:18.897Z,6.55
2023-03-14T11:43:49.011Z,1.80
2023-03-14T11:46:27.021Z,1.63
2023-03-14T11:49:24.835Z,2.60
2023-03-14T11:51:58.485Z,2.70
2023-03-14T11:54:43.696Z,3.00
2023-03-14T11:59:46.978Z,4.25
2023-03-14T12:02:16.560Z,3.17
2023-03-14T12:04:58.756Z,10.85
2023-03-14T12:07:36.449Z,4.22
2023-03-14T12:10:03.704Z,7.90
2023-03-14T12:12:31.617Z,6.18
2023-03-14T12:15:01.520Z,6.10
2023-03-14T12:17:35.145Z,9.93
2023-03-14T12:20:21.345Z,9.90
2023-03-14T12:22:49.277Z,13.18
2023-03-14T12:25:20.210Z,7.30
2023-03-14T12:27:50.250Z,8.82
2023-03-14T12:30:23.812Z,11.98
2023-03-14T12:33:17.833Z,7.75
2023-03-14T12:35:47.013Z,8.70
2023-03-14T12:38:37.975Z,10.18
2023-03-14T12:41:15.918Z,10.25
2023-03-14T12:43:42.795Z,8.63
2023-03-14T12:46:15.161Z,12.63
2023-03-14T12:48:41.744Z,10.00
2023-03-14T12:51:14.979Z,11.63
2023-03-14T12:53:54.779Z,7.70
2023-03-14T12:56:21.079Z,12.77
2023-03-14T12:59:24.880Z,13.10
2023-03-14T13:01:57.183Z,9.27
2023-03-14T13:05:01.554Z,15.35
2023-03-14T13:07:56.751Z,12.82
2023-03-14T13:10:26.391Z,13.38
2023-03-14T13:12:52.730Z,9.57
2023-03-14T13:15:23.688Z,14.18
2023-03-14T13:17:53.025Z,12.73
2023-03-14T13:20:35.677Z,8.00
2023-03-14T13:23:02.771Z,22.63
2023-03-14T13:25:36.275Z,17.70
2023-03-14T13:28:03.926Z,20.13
2023-03-14T13:30:40.618Z,24.90
2023-03-14T13:33:07.080Z,24.08
2023-03-14T13:35:49.337Z,27.52
2023-03-14T13:38:27.531Z,22.20
2023-03-14T13:40:58.733Z,22.15
2023-03-14T13:43:33.978Z,23.35
2023-03-14T13:46:05.522Z,19.70
2023-03-14T13:48:34.647Z,25.88
2023-03-14T13:51:11.465Z,31.85
2023-03-14T13:53:45.760Z,20.48
2023-03-14T13:56:13.430Z,22.55
2023-03-14T13:58:41.129Z,16.55
2023-03-14T14:01:15.143Z,25.83
2023-03-14T14:03:43.370Z,22.20
2023-03-14T14:06:20.509Z,21.33
2023-03-14T14:08:47.041Z,23.80
2023-03-14T14:11:26.009Z,25.35
2023-03-14T14:13:55.819Z,18.08
2023-03-14T14:16:27.090Z,19.17
2023-03-14T14:18:56.376Z,28.27
2023-03-14T14:21:23.168Z,18.38
2023-03-14T14:23:49.971Z,18.55
2023-03-14T14:26:20.796Z,21.75
2023-03-14T14:28:47.957Z,16.02
2023-03-14T14:31:22.144Z,17.50
2023-03-14T14:33:51.201Z,14.00
2023-03-14T14:36:25.343Z,21.42
2023-03-14T14:39:03.980Z,21.20
2023-03-14T14:41:32.415Z,19.60
2023-03-14T14:44:00.768Z,14.55
2023-03-14T14:46:30.889Z,14.63
2023-03-14T14:49:02.575Z,13.60
2023-03-14T14:51:39.111Z,21.42
2023-03-14T14:54:17.846Z,17.38
2023-03-14T14:56:53.816Z,20.88
2023-03-14T14:59:28.633Z,18.98
2023-03-14T15:04:25.665Z,12.10
2023-03-14T15:06:53.202Z,18.50
2023-03-14T15:09:20.321Z,13.45
2023-03-14T15:11:47.607Z,17.17
2023-03-14T15:14:14.257Z,23.15
2023-03-14T15:16:41.783Z,15.90
2023-03-14T15:19:24.797Z,14.45
2023-03-14T15:21:53.493Z,15.23
2023-03-14T15:24:20.030Z,16.80
2023-03-14T15:26:46.467Z,16.48
2023-03-14T15:29:13.365Z,14.70
2023-03-14T15:31:41.109Z,11.85
2023-03-14T15:34:07.489Z,26.92
2023-03-14T15:36:35.040Z,15.55
2023-03-14T15:39:01.457Z,10.65
2023-03-14T15:41:29.068Z,9.85
2023-03-14T15:43:55.988Z,10.00
2023-03-14T15:46:22.547Z,9.70
2023-03-14T15:48:50.867Z,13.02
2023-03-14T15:51:17.998Z,14.68
2023-03-14T15:53:44.805Z,14.05
2023-03-14T15:56:17.108Z,9.68
2023-03-14T15:58:43.592Z,14.02
2023-03-14T16:01:09.935Z,7.75
2023-03-14T16:03:36.544Z,14.23
2023-03-14T16:06:03.270Z,13.15
2023-03-14T16:08:29.628Z,8.35
2023-03-14T16:10:58.284Z,16.70
2023-03-14T16:13:24.748Z,8.73
2023-03-14T16:15:59.064Z,14.85
2023-03-14T16:18:27.718Z,24.38
2023-03-14T16:21:08.677Z,12.15
2023-03-14T16:23:36.013Z,10.93
2023-03-14T16:26:07.976Z,10.55
2023-03-14T16:28:34.925Z,12.82
2023-03-14T16:31:09.545Z,15.00
2023-03-14T16:33:37.221Z,15.95
2023-03-14T16:36:05.468Z,8.13
2023-03-14T16:38:34.000Z,14.98
2023-03-14T16:41:07.129Z,17.13
2023-03-14T16:43:34.105Z,13.20
2023-03-14T16:46:01.187Z,10.00
2023-03-14T16:48:28.338Z,11.85
2023-03-14T16:50:54.754Z,8.05
2023-03-14T16:53:22.069Z,14.32
2023-03-14T16:55:49.989Z,13.07
2023-03-14T16:58:16.782Z,14.75
2023-03-14T17:00:45.550Z,12.75
2023-03-14T17:03:12.026Z,12.38
2023-03-14T17:05:44.345Z,16.15
2023-03-14T17:08:10.672Z,14.25
2023-03-14T17:10:38.762Z,13.10
2023-03-14T17:13:06.085Z,15.60
2023-03-14T17:15:32.457Z,27.98
2023-03-14T17:17:58.866Z,12.20
2023-03-14T17:20:25.170Z,13.80
2023-03-14T17:22:51.481Z,13.77
2023-03-14T17:25:17.939Z,25.25
2023-03-14T17:27:46.140Z,8.55
2023-03-14T17:30:13.221Z,18.80
2023-03-14T17:32:39.556Z,11.02
2023-03-14T17:35:06.092Z,6.25
2023-03-14T17:37:32.522Z,12.30
2023-03-14T17:39:58.813Z,7.45
2023-03-14T17:42:25.172Z,12.00
2023-03-14T17:44:51.506Z,8.27
2023-03-14T17:47:17.827Z,12.20
2023-03-14T17:49:44.144Z,8.60
2023-03-14T17:52:10.429Z,20.55
2023-03-14T17:54:36.746Z,12.80
2023-03-14T17:57:03.062Z,9.30
2023-03-14T17:59:29.361Z,12.95
2023-03-14T18:01:55.799Z,14.73
2023-03-14T18:04:22.272Z,13.32
2023-03-14T18:06:48.657Z,7.43
2023-03-14T18:09:15.252Z,12.48
2023-03-14T18:11:41.622Z,15.00
2023-03-14T18:14:07.984Z,8.50
2023-03-14T18:16:35.439Z,10.80
2023-03-14T18:19:01.835Z,10.32
2023-03-14T18:21:28.705Z,8.75
2023-03-14T18:23:55.050Z,11.70
2023-03-14T18:26:21.446Z,8.13
2023-03-14T18:28:47.798Z,10.30
2023-03-14T18:31:14.372Z,9.73
2023-03-14T18:33:41.071Z,16.55
2023-03-14T18:36:09.377Z,9.98
2023-03-14T18:38:35.830Z,11.75
2023-03-14T18:41:06.495Z,8.80
2023-03-14T18:43:34.494Z,12.20
2023-03-14T18:46:01.886Z,11.85
2023-03-14T18:48:29.374Z,8.25
2023-03-14T18:50:57.157Z,13.65
2023-03-14T18:53:23.530Z,10.70
2023-03-14T18:55:49.838Z,13.35
2023-03-14T18:58:16.125Z,12.57
2023-03-14T19:00:42.433Z,9.70
2023-03-14T19:03:08.828Z,12.15
2023-03-14T19:05:35.210Z,10.57
2023-03-14T19:08:01.521Z,12.13
2023-03-14T19:10:27.911Z,7.45
2023-03-14T19:12:54.244Z,10.25
2023-03-14T19:15:20.548Z,9.82
2023-03-14T19:17:46.997Z,10.60
2023-03-14T19:20:13.313Z,8.70
2023-03-14T19:22:39.650Z,8.27
2023-03-14T19:25:06.461Z,10.02
2023-03-14T19:27:32.894Z,5.40
2023-03-14T19:29:59.203Z,12.68
2023-03-14T19:32:25.592Z,6.63
2023-03-14T19:34:51.938Z,15.38
2023-03-14T19:37:18.409Z,12.73
2023-03-14T19:39:44.738Z,13.13
2023-03-14T19:42:11.386Z,25.65
2023-03-14T19:44:37.715Z,18.13
2023-03-14T19:47:04.296Z,14.65
2023-03-14T19:49:30.598Z,15.40
2023-03-14T19:51:56.914Z,11.55
2023-03-14T19:54:23.271Z,18.15
2023-03-14T19:56:50.256Z,12.57
2023-03-14T19:59:16.919Z,11.85
2023-03-14T20:01:44.346Z,10.45
2023-03-14T20:04:10.716Z,11.32
2023-03-14T20:06:37.018Z,17.95
2023-03-14T20:09:03.608Z,9.18
2023-03-14T20:11:29.994Z,11.13
2023-03-14T20:13:56.367Z,14.70
2023-03-14T20:16:22.802Z,8.98
2023-03-14T20:18:49.153Z,11.85
2023-03-14T20:21:15.501Z,10.30
2023-03-14T20:23:42.070Z,18.17
2023-03-14T20:26:08.422Z,12.38
2023-03-14T20:28:34.774Z,9.93
2023-03-14T20:31:01.200Z,9.73
2023-03-14T20:33:27.674Z,10.10
2023-03-14T20:35:56.133Z,9.80
2023-03-14T20:38:24.208Z,8.48
2023-03-14T20:40:50.531Z,10.10
2023-03-14T20:43:16.857Z,7.97
2023-03-14T20:45:43.216Z,15.55
2023-03-14T20:48:09.746Z,9.32
2023-03-14T20:50:36.039Z,11.70
2023-03-14T20:53:02.411Z,14.95
2023-03-14T20:55:28.791Z,11.23
2023-03-14T20:57:55.124Z,10.73
2023-03-14T21:00:21.517Z,20.92
2023-03-14T21:02:47.840Z,16.33
2023-03-14T21:05:14.563Z,14.02
2023-03-14T21:07:40.895Z,15.05
2023-03-14T21:10:11.358Z,12.15
2023-03-14T21:12:37.683Z,13.10
2023-03-14T21:15:05.671Z,16.75
2023-03-14T21:17:32.005Z,15.75
2023-03-14T21:19:58.457Z,17.13
2023-03-14T21:22:26.080Z,13.07
2023-03-14T21:24:53.306Z,15.18
2023-03-14T21:27:20.379Z,16.23
2023-03-14T21:29:47.157Z,16.17
2023-03-14T21:32:14.058Z,18.10
2023-03-14T21:34:41.185Z,17.42
2023-03-14T21:37:07.522Z,11.50
2023-03-14T21:39:33.839Z,11.52
2023-03-14T21:42:00.153Z,12.68
2023-03-14T21:44:26.453Z,10.48
2023-03-14T21:46:52.844Z,13.35
2023-03-14T21:49:19.203Z,16.00
2023-03-14T21:51:45.585Z,14.93
2023-03-14T21:54:13.661Z,10.65
2023-03-14T21:56:40.310Z,15.38
2023-03-14T21:59:06.658Z,11.77
2023-03-14T22:01:33.008Z,13.00
2023-03-14T22:03:59.949Z,13.60
2023-03-14T22:06:28.037Z,13.40
2023-03-14T22:08:54.438Z,13.20
2023-03-14T22:11:22.331Z,10.15
2023-03-14T22:13:48.679Z,9.48
2023-03-14T22:16:15.207Z,10.98
2023-03-14T22:18:41.542Z,9.93
2023-03-14T22:21:07.860Z,14.98
2023-03-14T22:23:34.193Z,10.63
2023-03-14T22:26:00.500Z,14.05
2023-03-14T22:28:26.818Z,8.07
2023-03-14T22:30:53.151Z,28.00
2023-03-14T22:33:19.724Z,17.98
2023-03-14T22:35:52.436Z,10.98
2023-03-14T22:38:19.243Z,18.48
2023-03-14T22:40:46.067Z,18.02
2023-03-14T22:43:12.358Z,15.20
2023-03-14T22:45:38.888Z,16.55
2023-03-14T22:48:05.372Z,17.08
2023-03-14T22:50:31.696Z,18.75
2023-03-14T22:52:58.022Z,14.60
2023-03-14T22:55:24.393Z,15.13
2023-03-14T22:57:52.572Z,10.82
2023-03-14T23:00:20.043Z,18.85
2023-03-14T23:02:46.729Z,11.35
2023-03-14T23:05:13.162Z,20.80
2023-03-14T23:07:39.485Z,20.40
2023-03-14T23:10:06.666Z,17.20
2023-03-14T23:12:33.070Z,15.50
2023-03-14T23:14:59.392Z,18.30
2023-03-14T23:17:25.814Z,8.15
2023-03-14T23:19:53.551Z,21.27
2023-03-14T23:22:20.366Z,22.67
2023-03-14T23:24:46.653Z,16.10
2023-03-14T23:27:12.965Z,10.23
2023-03-14T23:29:39.289Z,14.25
2023-03-14T23:32:05.694Z,23.67
2023-03-14T23:34:32.000Z,18.17
2023-03-14T23:36:58.367Z,20.88
2023-03-14T23:39:24.686Z,12.13
2023-03-14T23:41:51.021Z,14.18
2023-03-14T23:44:17.375Z,13.52
2023-03-14T23:46:43.754Z,12.27
2023-03-14T23:49:10.060Z,16.35
2023-03-14T23:51:36.375Z,16.70
2023-03-14T23:54:02.706Z,18.75
2023-03-14T23:56:29.044Z,13.07
2023-03-14T23:58:55.365Z,16.33
